sensor_id;sensor_type;location;lat;lon;timestamp;P1;durP1;ratioP1;P2;durP2;ratioP2
55314;SDS011;41619;42.816;23.226;2023-05-07T00:01:38;19.10;;;12.15;;
55314;SDS011;41619;42.816;23.226;2023-05-07T00:04:04;20.30;;;11.27;;
55314;SDS011;41619;42.816;23.226;2023-05-07T00:06:29;20.00;;;11.27;;
55314;SDS011;41619;42.816;23.226;2023-05-07T00:08:56;22.60;;;12.30;;
55314;SDS011;41619;42.816;23.226;2023-05-07T00:11:22;22.63;;;11.23;;
55314;SDS011;41619;42.816;23.226;2023-05-07T00:13:48;19.80;;;11.30;;
55314;SDS011;41619;42.816;23.226;2023-05-07T00:16:13;19.35;;;10.82;;
55314;SDS011;41619;42.816;23.226;2023-05-07T00:18:39;18.45;;;11.55;;
55314;SDS011;41619;42.816;23.226;2023-05-07T00:21:04;22.08;;;11.05;;
55314;SDS011;41619;42.816;23.226;2023-05-07T00:23:30;24.55;;;11.20;;
55314;SDS011;41619;42.816;23.226;2023-05-07T00:25:55;18.67;;;10.68;;
55314;SDS011;41619;42.816;23.226;2023-05-07T00:28:21;21.77;;;11.30;;
55314;SDS011;41619;42.816;23.226;2023-05-07T00:30:46;26.40;;;11.52;;
55314;SDS011;41619;42.816;23.226;2023-05-07T00:33:12;17.30;;;10.45;;
55314;SDS011;41619;42.816;23.226;2023-05-07T00:35:37;29.27;;;12.63;;
55314;SDS011;41619;42.816;23.226;2023-05-07T00:38:02;19.88;;;12.45;;
55314;SDS011;41619;42.816;23.226;2023-05-07T00:40:28;20.15;;;11.63;;
55314;SDS011;41619;42.816;23.226;2023-05-07T00:42:53;21.90;;;11.68;;
55314;SDS011;41619;42.816;23.226;2023-05-07T00:45:22;16.80;;;10.57;;
55314;SDS011;41619;42.816;23.226;2023-05-07T00:47:51;18.17;;;11.07;;
55314;SDS011;41619;42.816;23.226;2023-05-07T00:50:18;18.98;;;11.90;;
55314;SDS011;41619;42.816;23.226;2023-05-07T00:52:45;24.48;;;11.38;;
55314;SDS011;41619;42.816;23.226;2023-05-07T00:55:10;21.67;;;13.00;;
55314;SDS011;41619;42.816;23.226;2023-05-07T00:57:36;27.30;;;12.18;;
55314;SDS011;41619;42.816;23.226;2023-05-07T01:00:04;27.25;;;12.80;;
55314;SDS011;41619;42.816;23.226;2023-05-07T01:02:30;18.63;;;11.25;;
55314;SDS011;41619;42.816;23.226;2023-05-07T01:04:56;19.73;;;11.68;;
55314;SDS011;41619;42.816;23.226;2023-05-07T01:07:22;16.73;;;10.55;;
55314;SDS011;41619;42.816;23.226;2023-05-07T01:09:48;16.65;;;9.70;;
55314;SDS011;41619;42.816;23.226;2023-05-07T01:12:14;14.27;;;9.77;;
55314;SDS011;41619;42.816;23.226;2023-05-07T01:14:40;15.70;;;8.95;;
55314;SDS011;41619;42.816;23.226;2023-05-07T01:17:06;17.10;;;8.70;;
55314;SDS011;41619;42.816;23.226;2023-05-07T01:19:32;17.38;;;9.60;;
55314;SDS011;41619;42.816;23.226;2023-05-07T01:22:01;13.82;;;8.75;;
55314;SDS011;41619;42.816;23.226;2023-05-07T01:24:29;12.70;;;8.95;;
55314;SDS011;41619;42.816;23.226;2023-05-07T01:26:56;12.10;;;8.23;;
55314;SDS011;41619;42.816;23.226;2023-05-07T01:29:21;16.48;;;9.43;;
55314;SDS011;41619;42.816;23.226;2023-05-07T01:31:47;13.32;;;8.95;;
55314;SDS011;41619;42.816;23.226;2023-05-07T01:34:13;14.73;;;9.32;;
55314;SDS011;41619;42.816;23.226;2023-05-07T01:36:42;14.18;;;9.23;;
55314;SDS011;41619;42.816;23.226;2023-05-07T01:39:08;15.25;;;9.32;;
55314;SDS011;41619;42.816;23.226;2023-05-07T01:41:35;24.33;;;9.35;;
55314;SDS011;41619;42.816;23.226;2023-05-07T01:44:00;16.45;;;10.40;;
55314;SDS011;41619;42.816;23.226;2023-05-07T01:46:28;14.00;;;9.27;;
55314;SDS011;41619;42.816;23.226;2023-05-07T01:48:54;16.48;;;11.52;;
55314;SDS011;41619;42.816;23.226;2023-05-07T01:51:19;20.55;;;10.77;;
55314;SDS011;41619;42.816;23.226;2023-05-07T01:53:46;15.30;;;10.27;;
55314;SDS011;41619;42.816;23.226;2023-05-07T01:56:15;16.88;;;11.23;;
55314;SDS011;41619;42.816;23.226;2023-05-07T01:58:41;15.73;;;10.20;;
55314;SDS011;41619;42.816;23.226;2023-05-07T02:01:07;16.50;;;9.98;;
55314;SDS011;41619;42.816;23.226;2023-05-07T02:03:32;15.02;;;9.75;;
55314;SDS011;41619;42.816;23.226;2023-05-07T02:05:57;16.02;;;10.43;;
55314;SDS011;41619;42.816;23.226;2023-05-07T02:08:23;14.40;;;9.68;;
55314;SDS011;41619;42.816;23.226;2023-05-07T02:10:48;16.58;;;10.63;;
55314;SDS011;41619;42.816;23.226;2023-05-07T02:13:15;15.82;;;10.50;;
55314;SDS011;41619;42.816;23.226;2023-05-07T02:15:40;18.85;;;11.27;;
55314;SDS011;41619;42.816;23.226;2023-05-07T02:18:07;16.90;;;10.45;;
55314;SDS011;41619;42.816;23.226;2023-05-07T02:20:34;19.95;;;10.93;;
55314;SDS011;41619;42.816;23.226;2023-05-07T02:22:59;20.17;;;10.82;;
55314;SDS011;41619;42.816;23.226;2023-05-07T02:25:25;15.75;;;10.57;;
55314;SDS011;41619;42.816;23.226;2023-05-07T02:27:51;19.65;;;11.68;;
55314;SDS011;41619;42.816;23.226;2023-05-07T02:30:16;17.15;;;11.00;;
55314;SDS011;41619;42.816;23.226;2023-05-07T02:32:41;23.90;;;13.02;;
55314;SDS011;41619;42.816;23.226;2023-05-07T02:35:07;24.05;;;15.02;;
55314;SDS011;41619;42.816;23.226;2023-05-07T02:37:33;25.55;;;17.10;;
55314;SDS011;41619;42.816;23.226;2023-05-07T02:39:58;30.38;;;19.23;;
55314;SDS011;41619;42.816;23.226;2023-05-07T02:42:23;18.98;;;12.60;;
55314;SDS011;41619;42.816;23.226;2023-05-07T02:44:49;15.60;;;10.25;;
55314;SDS011;41619;42.816;23.226;2023-05-07T02:47:14;30.33;;;16.35;;
55314;SDS011;41619;42.816;23.226;2023-05-07T02:49:40;13.05;;;9.63;;
55314;SDS011;41619;42.816;23.226;2023-05-07T02:52:05;18.08;;;9.80;;
55314;SDS011;41619;42.816;23.226;2023-05-07T02:54:31;12.52;;;9.25;;
55314;SDS011;41619;42.816;23.226;2023-05-07T02:56:57;13.73;;;9.20;;
55314;SDS011;41619;42.816;23.226;2023-05-07T02:59:23;17.50;;;10.38;;
55314;SDS011;41619;42.816;23.226;2023-05-07T03:01:49;17.27;;;8.90;;
55314;SDS011;41619;42.816;23.226;2023-05-07T03:04:15;19.25;;;11.57;;
55314;SDS011;41619;42.816;23.226;2023-05-07T03:06:41;15.68;;;9.82;;
55314;SDS011;41619;42.816;23.226;2023-05-07T03:09:06;15.30;;;10.45;;
55314;SDS011;41619;42.816;23.226;2023-05-07T03:11:32;17.58;;;10.35;;
55314;SDS011;41619;42.816;23.226;2023-05-07T03:13:57;16.23;;;9.45;;
55314;SDS011;41619;42.816;23.226;2023-05-07T03:16:23;13.77;;;9.90;;
55314;SDS011;41619;42.816;23.226;2023-05-07T03:18:48;13.38;;;8.73;;
55314;SDS011;41619;42.816;23.226;2023-05-07T03:21:13;13.65;;;9.32;;
55314;SDS011;41619;42.816;23.226;2023-05-07T03:23:39;18.92;;;9.60;;
55314;SDS011;41619;42.816;23.226;2023-05-07T03:26:04;16.08;;;10.43;;
55314;SDS011;41619;42.816;23.226;2023-05-07T03:28:30;14.13;;;9.27;;
55314;SDS011;41619;42.816;23.226;2023-05-07T03:30:55;15.07;;;9.05;;
55314;SDS011;41619;42.816;23.226;2023-05-07T03:33:20;15.95;;;10.43;;
55314;SDS011;41619;42.816;23.226;2023-05-07T03:35:46;15.02;;;10.93;;
55314;SDS011;41619;42.816;23.226;2023-05-07T03:38:11;19.48;;;10.05;;
55314;SDS011;41619;42.816;23.226;2023-05-07T03:40:37;18.75;;;9.63;;
55314;SDS011;41619;42.816;23.226;2023-05-07T03:43:02;19.92;;;10.18;;
55314;SDS011;41619;42.816;23.226;2023-05-07T03:45:27;47.38;;;23.10;;
55314;SDS011;41619;42.816;23.226;2023-05-07T03:47:53;20.00;;;12.35;;
55314;SDS011;41619;42.816;23.226;2023-05-07T03:50:19;25.35;;;14.65;;
55314;SDS011;41619;42.816;23.226;2023-05-07T03:52:44;23.40;;;14.27;;
55314;SDS011;41619;42.816;23.226;2023-05-07T03:55:10;22.27;;;14.10;;
55314;SDS011;41619;42.816;23.226;2023-05-07T03:57:35;27.63;;;14.40;;
55314;SDS011;41619;42.816;23.226;2023-05-07T04:00:01;19.90;;;13.45;;
55314;SDS011;41619;42.816;23.226;2023-05-07T04:02:27;46.67;;;24.15;;
55314;SDS011;41619;42.816;23.226;2023-05-07T04:04:52;30.92;;;17.52;;
55314;SDS011;41619;42.816;23.226;2023-05-07T04:07:17;134.88;;;62.63;;
55314;SDS011;41619;42.816;23.226;2023-05-07T04:09:43;30.27;;;19.15;;
55314;SDS011;41619;42.816;23.226;2023-05-07T04:12:08;20.80;;;12.77;;
55314;SDS011;41619;42.816;23.226;2023-05-07T04:14:33;21.95;;;12.48;;
55314;SDS011;41619;42.816;23.226;2023-05-07T04:16:59;16.65;;;10.95;;
55314;SDS011;41619;42.816;23.226;2023-05-07T04:19:24;17.48;;;11.95;;
55314;SDS011;41619;42.816;23.226;2023-05-07T04:21:50;21.70;;;13.13;;
55314;SDS011;41619;42.816;23.226;2023-05-07T04:24:15;47.50;;;25.38;;
55314;SDS011;41619;42.816;23.226;2023-05-07T04:26:41;25.13;;;17.05;;
55314;SDS011;41619;42.816;23.226;2023-05-07T04:29:06;22.23;;;12.35;;
55314;SDS011;41619;42.816;23.226;2023-05-07T04:31:32;17.33;;;11.35;;
55314;SDS011;41619;42.816;23.226;2023-05-07T04:33:57;20.73;;;10.85;;
55314;SDS011;41619;42.816;23.226;2023-05-07T04:36:22;19.65;;;11.45;;
55314;SDS011;41619;42.816;23.226;2023-05-07T04:38:51;20.13;;;11.10;;
55314;SDS011;41619;42.816;23.226;2023-05-07T04:41:16;16.98;;;10.57;;
55314;SDS011;41619;42.816;23.226;2023-05-07T04:43:41;16.17;;;11.02;;
55314;SDS011;41619;42.816;23.226;2023-05-07T04:46:07;22.05;;;11.63;;
55314;SDS011;41619;42.816;23.226;2023-05-07T04:48:33;16.27;;;10.68;;
55314;SDS011;41619;42.816;23.226;2023-05-07T04:50:58;17.02;;;11.07;;
55314;SDS011;41619;42.816;23.226;2023-05-07T04:53:24;23.67;;;12.50;;
55314;SDS011;41619;42.816;23.226;2023-05-07T04:55:54;19.20;;;10.73;;
55314;SDS011;41619;42.816;23.226;2023-05-07T04:58:20;16.73;;;10.75;;
55314;SDS011;41619;42.816;23.226;2023-05-07T05:00:46;17.55;;;10.10;;
55314;SDS011;41619;42.816;23.226;2023-05-07T05:03:11;16.55;;;10.40;;
55314;SDS011;41619;42.816;23.226;2023-05-07T05:05:37;22.27;;;10.73;;
55314;SDS011;41619;42.816;23.226;2023-05-07T05:08:02;19.23;;;12.00;;
55314;SDS011;41619;42.816;23.226;2023-05-07T05:10:28;16.58;;;11.40;;
55314;SDS011;41619;42.816;23.226;2023-05-07T05:12:53;17.23;;;10.52;;
55314;SDS011;41619;42.816;23.226;2023-05-07T05:15:18;17.27;;;10.57;;
55314;SDS011;41619;42.816;23.226;2023-05-07T05:17:44;31.13;;;11.80;;
55314;SDS011;41619;42.816;23.226;2023-05-07T05:20:09;18.50;;;11.23;;
55314;SDS011;41619;42.816;23.226;2023-05-07T05:22:38;17.77;;;10.10;;
55314;SDS011;41619;42.816;23.226;2023-05-07T05:25:04;15.73;;;10.75;;
55314;SDS011;41619;42.816;23.226;2023-05-07T05:27:29;21.48;;;11.68;;
55314;SDS011;41619;42.816;23.226;2023-05-07T05:29:55;18.90;;;10.68;;
55314;SDS011;41619;42.816;23.226;2023-05-07T05:32:20;17.90;;;11.48;;
55314;SDS011;41619;42.816;23.226;2023-05-07T05:34:46;19.52;;;11.77;;
55314;SDS011;41619;42.816;23.226;2023-05-07T05:37:11;22.95;;;12.05;;
55314;SDS011;41619;42.816;23.226;2023-05-07T05:39:37;14.77;;;11.00;;
55314;SDS011;41619;42.816;23.226;2023-05-07T05:42:02;21.60;;;12.57;;
55314;SDS011;41619;42.816;23.226;2023-05-07T05:44:27;20.02;;;12.07;;
55314;SDS011;41619;42.816;23.226;2023-05-07T05:46:53;24.13;;;12.80;;
55314;SDS011;41619;42.816;23.226;2023-05-07T05:49:22;16.25;;;12.88;;
55314;SDS011;41619;42.816;23.226;2023-05-07T05:51:48;17.27;;;13.50;;
55314;SDS011;41619;42.816;23.226;2023-05-07T05:54:13;20.77;;;14.60;;
55314;SDS011;41619;42.816;23.226;2023-05-07T05:56:39;21.67;;;14.52;;
55314;SDS011;41619;42.816;23.226;2023-05-07T05:59:04;20.10;;;13.82;;
55314;SDS011;41619;42.816;23.226;2023-05-07T06:01:30;24.65;;;16.60;;
55314;SDS011;41619;42.816;23.226;2023-05-07T06:03:55;20.23;;;14.95;;
55314;SDS011;41619;42.816;23.226;2023-05-07T06:06:21;26.80;;;15.75;;
55314;SDS011;41619;42.816;23.226;2023-05-07T06:08:46;25.85;;;14.48;;
55314;SDS011;41619;42.816;23.226;2023-05-07T06:11:12;24.35;;;15.23;;
55314;SDS011;41619;42.816;23.226;2023-05-07T06:13:37;20.00;;;14.60;;
55314;SDS011;41619;42.816;23.226;2023-05-07T06:16:03;27.17;;;14.60;;
55314;SDS011;41619;42.816;23.226;2023-05-07T06:18:28;27.52;;;15.32;;
55314;SDS011;41619;42.816;23.226;2023-05-07T06:20:53;18.65;;;13.65;;
55314;SDS011;41619;42.816;23.226;2023-05-07T06:23:19;22.88;;;13.75;;
55314;SDS011;41619;42.816;23.226;2023-05-07T06:25:48;20.27;;;14.63;;
55314;SDS011;41619;42.816;23.226;2023-05-07T06:28:17;34.45;;;15.50;;
55314;SDS011;41619;42.816;23.226;2023-05-07T06:30:42;16.67;;;12.98;;
55314;SDS011;41619;42.816;23.226;2023-05-07T06:33:08;24.55;;;14.35;;
55314;SDS011;41619;42.816;23.226;2023-05-07T06:35:33;22.70;;;13.95;;
55314;SDS011;41619;42.816;23.226;2023-05-07T06:37:59;20.85;;;14.40;;
55314;SDS011;41619;42.816;23.226;2023-05-07T06:40:25;19.77;;;13.50;;
55314;SDS011;41619;42.816;23.226;2023-05-07T06:42:51;19.10;;;12.85;;
55314;SDS011;41619;42.816;23.226;2023-05-07T06:45:16;16.60;;;12.43;;
55314;SDS011;41619;42.816;23.226;2023-05-07T06:47:41;17.55;;;12.90;;
55314;SDS011;41619;42.816;23.226;2023-05-07T06:50:07;23.02;;;12.57;;
55314;SDS011;41619;42.816;23.226;2023-05-07T06:52:33;19.80;;;12.00;;
55314;SDS011;41619;42.816;23.226;2023-05-07T06:54:59;16.02;;;11.80;;
55314;SDS011;41619;42.816;23.226;2023-05-07T06:57:25;21.45;;;12.35;;
55314;SDS011;41619;42.816;23.226;2023-05-07T06:59:50;20.55;;;11.57;;
55314;SDS011;41619;42.816;23.226;2023-05-07T07:02:15;18.63;;;11.68;;
55314;SDS011;41619;42.816;23.226;2023-05-07T07:04:41;16.88;;;11.43;;
55314;SDS011;41619;42.816;23.226;2023-05-07T07:07:06;16.50;;;10.63;;
55314;SDS011;41619;42.816;23.226;2023-05-07T07:09:32;17.02;;;13.05;;
55314;SDS011;41619;42.816;23.226;2023-05-07T07:11:57;16.45;;;11.13;;
55314;SDS011;41619;42.816;23.226;2023-05-07T07:14:23;14.65;;;9.88;;
55314;SDS011;41619;42.816;23.226;2023-05-07T07:16:48;19.02;;;10.60;;
55314;SDS011;41619;42.816;23.226;2023-05-07T07:19:13;14.90;;;10.32;;
55314;SDS011;41619;42.816;23.226;2023-05-07T07:21:40;13.68;;;9.88;;
55314;SDS011;41619;42.816;23.226;2023-05-07T07:24:06;19.73;;;10.68;;
55314;SDS011;41619;42.816;23.226;2023-05-07T07:26:31;14.35;;;10.80;;
55314;SDS011;41619;42.816;23.226;2023-05-07T07:28:57;10.45;;;9.32;;
55314;SDS011;41619;42.816;23.226;2023-05-07T07:31:22;15.05;;;10.00;;
55314;SDS011;41619;42.816;23.226;2023-05-07T07:33:47;26.95;;;16.85;;
55314;SDS011;41619;42.816;23.226;2023-05-07T07:36:15;12.88;;;9.40;;
55314;SDS011;41619;42.816;23.226;2023-05-07T07:38:40;18.73;;;9.02;;
55314;SDS011;41619;42.816;23.226;2023-05-07T07:41:07;14.57;;;9.13;;
55314;SDS011;41619;42.816;23.226;2023-05-07T07:43:34;12.57;;;8.87;;
55314;SDS011;41619;42.816;23.226;2023-05-07T07:46:00;14.25;;;8.35;;
55314;SDS011;41619;42.816;23.226;2023-05-07T07:48:26;18.95;;;7.70;;
55314;SDS011;41619;42.816;23.226;2023-05-07T07:50:51;14.63;;;8.60;;
55314;SDS011;41619;42.816;23.226;2023-05-07T07:53:17;16.13;;;8.73;;
55314;SDS011;41619;42.816;23.226;2023-05-07T07:55:43;10.57;;;8.32;;
55314;SDS011;41619;42.816;23.226;2023-05-07T07:58:09;13.68;;;8.50;;
55314;SDS011;41619;42.816;23.226;2023-05-07T08:00:34;15.05;;;8.52;;
55314;SDS011;41619;42.816;23.226;2023-05-07T08:03:00;13.48;;;9.50;;
55314;SDS011;41619;42.816;23.226;2023-05-07T08:05:26;13.65;;;8.32;;
55314;SDS011;41619;42.816;23.226;2023-05-07T08:07:51;13.27;;;7.25;;
55314;SDS011;41619;42.816;23.226;2023-05-07T08:10:18;16.90;;;7.85;;
55314;SDS011;41619;42.816;23.226;2023-05-07T08:12:49;15.70;;;8.80;;
55314;SDS011;41619;42.816;23.226;2023-05-07T08:15:15;13.63;;;8.43;;
55314;SDS011;41619;42.816;23.226;2023-05-07T08:17:41;12.00;;;7.05;;
55314;SDS011;41619;42.816;23.226;2023-05-07T08:20:07;12.20;;;7.63;;
55314;SDS011;41619;42.816;23.226;2023-05-07T08:22:36;15.68;;;9.07;;
55314;SDS011;41619;42.816;23.226;2023-05-07T08:25:02;21.30;;;8.63;;
55314;SDS011;41619;42.816;23.226;2023-05-07T08:27:27;12.55;;;6.40;;
55314;SDS011;41619;42.816;23.226;2023-05-07T08:29:53;10.18;;;7.13;;
55314;SDS011;41619;42.816;23.226;2023-05-07T08:32:18;13.88;;;7.10;;
55314;SDS011;41619;42.816;23.226;2023-05-07T08:34:44;14.25;;;6.75;;
55314;SDS011;41619;42.816;23.226;2023-05-07T08:37:09;8.32;;;6.60;;
55314;SDS011;41619;42.816;23.226;2023-05-07T08:39:35;8.50;;;6.30;;
55314;SDS011;41619;42.816;23.226;2023-05-07T08:42:00;9.10;;;5.65;;
55314;SDS011;41619;42.816;23.226;2023-05-07T08:44:33;9.25;;;6.50;;
55314;SDS011;41619;42.816;23.226;2023-05-07T08:46:59;10.15;;;5.47;;
55314;SDS011;41619;42.816;23.226;2023-05-07T08:49:26;8.57;;;4.88;;
55314;SDS011;41619;42.816;23.226;2023-05-07T08:51:52;10.05;;;4.65;;
55314;SDS011;41619;42.816;23.226;2023-05-07T08:54:18;9.00;;;4.82;;
55314;SDS011;41619;42.816;23.226;2023-05-07T08:56:45;9.05;;;4.90;;
55314;SDS011;41619;42.816;23.226;2023-05-07T08:59:11;7.63;;;5.40;;
55314;SDS011;41619;42.816;23.226;2023-05-07T09:01:36;6.88;;;4.70;;
55314;SDS011;41619;42.816;23.226;2023-05-07T09:04:03;8.65;;;5.22;;
55314;SDS011;41619;42.816;23.226;2023-05-07T09:06:29;6.45;;;4.88;;
55314;SDS011;41619;42.816;23.226;2023-05-07T09:08:55;4.95;;;4.00;;
55314;SDS011;41619;42.816;23.226;2023-05-07T09:11:22;7.15;;;3.50;;
55314;SDS011;41619;42.816;23.226;2023-05-07T09:13:48;7.70;;;3.67;;
55314;SDS011;41619;42.816;23.226;2023-05-07T09:16:15;10.45;;;4.75;;
55314;SDS011;41619;42.816;23.226;2023-05-07T09:18:43;6.20;;;4.13;;
55314;SDS011;41619;42.816;23.226;2023-05-07T09:21:10;8.50;;;3.90;;
55314;SDS011;41619;42.816;23.226;2023-05-07T09:23:36;11.52;;;4.97;;
55314;SDS011;41619;42.816;23.226;2023-05-07T09:26:01;8.57;;;4.55;;
55314;SDS011;41619;42.816;23.226;2023-05-07T09:28:27;7.70;;;4.30;;
55314;SDS011;41619;42.816;23.226;2023-05-07T09:30:52;6.03;;;4.30;;
55314;SDS011;41619;42.816;23.226;2023-05-07T09:33:17;10.48;;;4.38;;
55314;SDS011;41619;42.816;23.226;2023-05-07T09:35:43;9.00;;;4.13;;
55314;SDS011;41619;42.816;23.226;2023-05-07T09:38:08;6.80;;;4.40;;
55314;SDS011;41619;42.816;23.226;2023-05-07T09:40:33;6.43;;;3.75;;
55314;SDS011;41619;42.816;23.226;2023-05-07T09:43:09;6.45;;;4.20;;
55314;SDS011;41619;42.816;23.226;2023-05-07T09:45:37;7.80;;;4.15;;
55314;SDS011;41619;42.816;23.226;2023-05-07T09:48:04;10.88;;;4.45;;
55314;SDS011;41619;42.816;23.226;2023-05-07T09:50:39;7.57;;;4.47;;
55314;SDS011;41619;42.816;23.226;2023-05-07T09:53:13;11.93;;;4.93;;
55314;SDS011;41619;42.816;23.226;2023-05-07T09:55:39;8.90;;;4.20;;
55314;SDS011;41619;42.816;23.226;2023-05-07T09:58:06;9.32;;;4.57;;
55314;SDS011;41619;42.816;23.226;2023-05-07T10:00:32;6.43;;;3.90;;
55314;SDS011;41619;42.816;23.226;2023-05-07T10:02:58;4.30;;;3.50;;
55314;SDS011;41619;42.816;23.226;2023-05-07T10:05:26;4.17;;;3.70;;
55314;SDS011;41619;42.816;23.226;2023-05-07T10:07:52;5.00;;;3.83;;
55314;SDS011;41619;42.816;23.226;2023-05-07T10:10:18;8.13;;;3.60;;
55314;SDS011;41619;42.816;23.226;2023-05-07T10:12:44;10.52;;;3.55;;
55314;SDS011;41619;42.816;23.226;2023-05-07T10:15:11;8.23;;;3.65;;
55314;SDS011;41619;42.816;23.226;2023-05-07T10:17:37;6.22;;;3.50;;
55314;SDS011;41619;42.816;23.226;2023-05-07T10:20:04;8.15;;;3.45;;
55314;SDS011;41619;42.816;23.226;2023-05-07T10:22:37;8.55;;;4.10;;
55314;SDS011;41619;42.816;23.226;2023-05-07T10:25:06;4.97;;;3.33;;
55314;SDS011;41619;42.816;23.226;2023-05-07T10:27:39;4.30;;;3.38;;
55314;SDS011;41619;42.816;23.226;2023-05-07T10:33:01;6.93;;;3.75;;
55314;SDS011;41619;42.816;23.226;2023-05-07T10:35:31;6.90;;;4.10;;
55314;SDS011;41619;42.816;23.226;2023-05-07T10:38:03;4.05;;;3.60;;
55314;SDS011;41619;42.816;23.226;2023-05-07T10:40:30;4.00;;;3.45;;
55314;SDS011;41619;42.816;23.226;2023-05-07T10:42:59;6.43;;;4.57;;
55314;SDS011;41619;42.816;23.226;2023-05-07T10:45:26;6.57;;;3.55;;
55314;SDS011;41619;42.816;23.226;2023-05-07T10:50:35;6.22;;;3.47;;
55314;SDS011;41619;42.816;23.226;2023-05-07T10:55:43;6.95;;;3.17;;
55314;SDS011;41619;42.816;23.226;2023-05-07T11:00:46;4.40;;;3.42;;
55314;SDS011;41619;42.816;23.226;2023-05-07T11:03:13;7.70;;;3.40;;
55314;SDS011;41619;42.816;23.226;2023-05-07T11:05:39;4.93;;;3.35;;
55314;SDS011;41619;42.816;23.226;2023-05-07T11:08:06;4.53;;;3.38;;
55314;SDS011;41619;42.816;23.226;2023-05-07T11:10:51;5.07;;;2.70;;
55314;SDS011;41619;42.816;23.226;2023-05-07T11:13:18;3.63;;;2.85;;
55314;SDS011;41619;42.816;23.226;2023-05-07T11:16:20;7.43;;;2.80;;
55314;SDS011;41619;42.816;23.226;2023-05-07T11:18:51;3.78;;;2.42;;
55314;SDS011;41619;42.816;23.226;2023-05-07T11:24:07;4.40;;;2.70;;
55314;SDS011;41619;42.816;23.226;2023-05-07T11:26:47;3.93;;;2.50;;
55314;SDS011;41619;42.816;23.226;2023-05-07T11:29:14;5.32;;;2.47;;
55314;SDS011;41619;42.816;23.226;2023-05-07T11:31:50;5.28;;;2.72;;
55314;SDS011;41619;42.816;23.226;2023-05-07T11:34:20;5.68;;;2.80;;
55314;SDS011;41619;42.816;23.226;2023-05-07T11:36:47;7.55;;;2.55;;
55314;SDS011;41619;42.816;23.226;2023-05-07T11:39:26;5.15;;;2.30;;
55314;SDS011;41619;42.816;23.226;2023-05-07T11:41:53;2.63;;;2.42;;
55314;SDS011;41619;42.816;23.226;2023-05-07T11:44:18;3.92;;;2.55;;
55314;SDS011;41619;42.816;23.226;2023-05-07T11:46:44;3.22;;;2.75;;
55314;SDS011;41619;42.816;23.226;2023-05-07T11:49:10;4.22;;;2.65;;
55314;SDS011;41619;42.816;23.226;2023-05-07T11:51:35;6.93;;;2.60;;
55314;SDS011;41619;42.816;23.226;2023-05-07T11:54:03;3.58;;;2.50;;
55314;SDS011;41619;42.816;23.226;2023-05-07T11:56:33;4.57;;;2.40;;
55314;SDS011;41619;42.816;23.226;2023-05-07T11:59:00;5.22;;;2.70;;
55314;SDS011;41619;42.816;23.226;2023-05-07T12:01:25;4.45;;;2.80;;
55314;SDS011;41619;42.816;23.226;2023-05-07T12:03:51;4.47;;;2.90;;
55314;SDS011;41619;42.816;23.226;2023-05-07T12:06:17;8.65;;;2.63;;
55314;SDS011;41619;42.816;23.226;2023-05-07T12:08:43;3.55;;;2.17;;
55314;SDS011;41619;42.816;23.226;2023-05-07T12:11:14;3.83;;;2.22;;
55314;SDS011;41619;42.816;23.226;2023-05-07T12:13:46;9.48;;;2.65;;
55314;SDS011;41619;42.816;23.226;2023-05-07T12:16:12;3.05;;;2.60;;
55314;SDS011;41619;42.816;23.226;2023-05-07T12:18:37;4.90;;;2.58;;
55314;SDS011;41619;42.816;23.226;2023-05-07T12:21:04;6.95;;;2.50;;
55314;SDS011;41619;42.816;23.226;2023-05-07T12:23:31;3.00;;;2.45;;
55314;SDS011;41619;42.816;23.226;2023-05-07T12:25:56;5.10;;;2.40;;
55314;SDS011;41619;42.816;23.226;2023-05-07T12:28:22;8.73;;;3.17;;
55314;SDS011;41619;42.816;23.226;2023-05-07T12:30:48;10.02;;;2.47;;
55314;SDS011;41619;42.816;23.226;2023-05-07T12:33:18;5.03;;;2.72;;
55314;SDS011;41619;42.816;23.226;2023-05-07T12:35:48;3.67;;;2.40;;
55314;SDS011;41619;42.816;23.226;2023-05-07T12:38:14;3.85;;;2.33;;
55314;SDS011;41619;42.816;23.226;2023-05-07T12:40:45;7.28;;;2.45;;
55314;SDS011;41619;42.816;23.226;2023-05-07T12:43:19;4.43;;;2.75;;
55314;SDS011;41619;42.816;23.226;2023-05-07T12:45:49;4.47;;;2.50;;
55314;SDS011;41619;42.816;23.226;2023-05-07T12:48:16;5.45;;;2.40;;
55314;SDS011;41619;42.816;23.226;2023-05-07T12:50:41;2.80;;;2.50;;
55314;SDS011;41619;42.816;23.226;2023-05-07T12:53:07;4.80;;;2.10;;
55314;SDS011;41619;42.816;23.226;2023-05-07T12:55:46;4.18;;;3.00;;
55314;SDS011;41619;42.816;23.226;2023-05-07T12:58:16;3.47;;;2.15;;
55314;SDS011;41619;42.816;23.226;2023-05-07T13:01:01;3.80;;;2.65;;
55314;SDS011;41619;42.816;23.226;2023-05-07T13:03:34;3.83;;;2.45;;
55314;SDS011;41619;42.816;23.226;2023-05-07T13:06:04;3.92;;;2.45;;
55314;SDS011;41619;42.816;23.226;2023-05-07T13:08:32;5.30;;;2.35;;
55314;SDS011;41619;42.816;23.226;2023-05-07T13:11:00;3.00;;;2.10;;
55314;SDS011;41619;42.816;23.226;2023-05-07T13:13:35;8.68;;;2.45;;
55314;SDS011;41619;42.816;23.226;2023-05-07T13:16:03;6.82;;;2.28;;
55314;SDS011;41619;42.816;23.226;2023-05-07T13:18:30;2.75;;;2.45;;
55314;SDS011;41619;42.816;23.226;2023-05-07T13:20:56;3.25;;;2.10;;
55314;SDS011;41619;42.816;23.226;2023-05-07T13:23:22;4.82;;;2.45;;
55314;SDS011;41619;42.816;23.226;2023-05-07T13:25:48;3.65;;;2.30;;
55314;SDS011;41619;42.816;23.226;2023-05-07T13:28:14;2.72;;;2.30;;
55314;SDS011;41619;42.816;23.226;2023-05-07T13:30:40;5.00;;;2.50;;
55314;SDS011;41619;42.816;23.226;2023-05-07T13:33:08;3.25;;;2.47;;
55314;SDS011;41619;42.816;23.226;2023-05-07T13:35:34;5.90;;;3.13;;
55314;SDS011;41619;42.816;23.226;2023-05-07T13:38:00;4.10;;;3.05;;
55314;SDS011;41619;42.816;23.226;2023-05-07T13:40:25;3.50;;;2.30;;
55314;SDS011;41619;42.816;23.226;2023-05-07T13:42:51;6.03;;;2.47;;
55314;SDS011;41619;42.816;23.226;2023-05-07T13:45:17;6.07;;;2.80;;
55314;SDS011;41619;42.816;23.226;2023-05-07T13:47:43;6.25;;;2.80;;
55314;SDS011;41619;42.816;23.226;2023-05-07T13:50:09;6.47;;;2.60;;
55314;SDS011;41619;42.816;23.226;2023-05-07T13:52:36;5.93;;;2.53;;
55314;SDS011;41619;42.816;23.226;2023-05-07T13:55:06;7.88;;;2.60;;
55314;SDS011;41619;42.816;23.226;2023-05-07T13:57:32;3.70;;;2.65;;
55314;SDS011;41619;42.816;23.226;2023-05-07T13:59:57;10.27;;;2.80;;
55314;SDS011;41619;42.816;23.226;2023-05-07T14:02:23;8.32;;;3.10;;
55314;SDS011;41619;42.816;23.226;2023-05-07T14:04:48;8.52;;;3.28;;
55314;SDS011;41619;42.816;23.226;2023-05-07T14:07:13;5.28;;;2.80;;
55314;SDS011;41619;42.816;23.226;2023-05-07T14:09:39;8.27;;;2.53;;
55314;SDS011;41619;42.816;23.226;2023-05-07T14:12:05;6.68;;;2.88;;
55314;SDS011;41619;42.816;23.226;2023-05-07T14:14:31;7.22;;;2.60;;
55314;SDS011;41619;42.816;23.226;2023-05-07T14:16:56;6.00;;;2.83;;
55314;SDS011;41619;42.816;23.226;2023-05-07T14:19:22;3.92;;;2.80;;
55314;SDS011;41619;42.816;23.226;2023-05-07T14:21:47;2.92;;;2.40;;
55314;SDS011;41619;42.816;23.226;2023-05-07T14:24:13;5.88;;;2.45;;
55314;SDS011;41619;42.816;23.226;2023-05-07T14:26:39;10.65;;;3.15;;
55314;SDS011;41619;42.816;23.226;2023-05-07T14:29:04;5.28;;;3.05;;
55314;SDS011;41619;42.816;23.226;2023-05-07T14:31:30;4.32;;;2.65;;